createdAt,value
2018-09-15T00:00:49.724Z,13.20
2018-09-15T00:03:18.152Z,13.10
2018-09-15T00:05:46.776Z,13.20
2018-09-15T00:08:15.548Z,13.20
2018-09-15T00:10:44.152Z,13.20
2018-09-15T00:13:12.986Z,13.30
2018-09-15T00:15:41.452Z,13.30
2018-09-15T00:18:12.012Z,13.40
2018-09-15T00:20:40.742Z,13.40
2018-09-15T00:23:10.256Z,13.40
2018-09-15T00:25:39.367Z,13.40
2018-09-15T00:28:08.120Z,13.50
2018-09-15T00:30:36.580Z,13.50
2018-09-15T00:33:05.188Z,13.50
2018-09-15T00:35:33.744Z,13.60
2018-09-15T00:38:02.238Z,13.60
2018-09-15T00:40:30.676Z,13.60
2018-09-15T00:42:59.104Z,13.60
2018-09-15T00:45:27.821Z,13.60
2018-09-15T00:47:56.308Z,13.60
2018-09-15T00:50:24.741Z,13.60
2018-09-15T00:52:53.158Z,13.60
2018-09-15T00:55:21.732Z,13.60
2018-09-15T00:57:50.173Z,13.60
2018-09-15T01:00:19.581Z,13.60
2018-09-15T01:02:48.107Z,13.60
2018-09-15T01:05:16.585Z,13.60
2018-09-15T01:07:45.036Z,13.60
2018-09-15T01:10:13.555Z,13.60
2018-09-15T01:12:42.006Z,13.60
2018-09-15T01:15:10.608Z,13.60
2018-09-15T01:17:39.057Z,13.60
2018-09-15T01:20:07.617Z,13.50
2018-09-15T01:22:36.040Z,13.50
2018-09-15T01:25:04.552Z,13.50
2018-09-15T01:27:32.989Z,13.50
2018-09-15T01:30:01.529Z,13.50
2018-09-15T01:32:30.105Z,13.50
2018-09-15T01:34:58.669Z,13.50
2018-09-15T01:37:27.171Z,13.50
2018-09-15T01:39:55.990Z,13.40
2018-09-15T01:42:24.942Z,13.40
2018-09-15T01:44:53.517Z,13.30
2018-09-15T01:47:22.094Z,13.30
2018-09-15T01:49:50.606Z,13.30
2018-09-15T01:52:19.092Z,13.40
2018-09-15T01:54:47.635Z,13.40
2018-09-15T01:57:16.371Z,13.30
2018-09-15T01:59:44.791Z,13.30
2018-09-15T02:02:13.271Z,13.30
2018-09-15T02:04:41.915Z,13.30
2018-09-15T02:07:10.377Z,13.20
2018-09-15T02:09:38.858Z,13.20
2018-09-15T02:12:07.579Z,13.10
2018-09-15T02:14:36.029Z,13.10
2018-09-15T02:17:04.493Z,13.10
2018-09-15T02:19:32.923Z,13.00
2018-09-15T02:22:01.489Z,13.00
2018-09-15T02:24:30.041Z,12.90
2018-09-15T02:26:58.598Z,12.90
2018-09-15T02:29:27.041Z,12.90
2018-09-15T02:31:55.527Z,12.80
2018-09-15T02:34:24.011Z,12.80
2018-09-15T02:36:52.483Z,12.70
2018-09-15T02:39:20.962Z,12.70
2018-09-15T02:41:49.419Z,12.70
2018-09-15T02:44:17.885Z,12.70
2018-09-15T02:46:46.411Z,12.70
2018-09-15T02:49:14.985Z,12.60
2018-09-15T02:51:43.427Z,12.60
2018-09-15T02:54:11.985Z,12.50
2018-09-15T02:56:40.441Z,12.50
2018-09-15T02:59:08.873Z,12.50
2018-09-15T03:01:37.326Z,12.50
2018-09-15T03:04:05.774Z,12.50
2018-09-15T03:06:34.197Z,12.50
2018-09-15T03:09:02.681Z,12.50
2018-09-15T03:11:31.140Z,12.40
2018-09-15T03:13:59.581Z,12.40
2018-09-15T03:16:28.013Z,12.40
2018-09-15T03:18:56.441Z,12.40
2018-09-15T03:21:24.991Z,12.40
2018-09-15T03:23:53.463Z,12.30
2018-09-15T03:26:22.013Z,12.30
2018-09-15T03:28:50.444Z,12.30
2018-09-15T03:31:19.044Z,12.20
2018-09-15T03:33:47.487Z,12.20
2018-09-15T03:36:16.014Z,12.20
2018-09-15T03:38:44.508Z,12.20
2018-09-15T03:41:12.928Z,12.20
2018-09-15T03:43:41.475Z,12.20
2018-09-15T03:46:10.037Z,12.10
2018-09-15T03:48:38.465Z,12.10
2018-09-15T03:51:06.910Z,12.10
2018-09-15T03:53:35.367Z,12.10
2018-09-15T03:56:03.857Z,12.10
2018-09-15T03:58:32.293Z,12.10
2018-09-15T04:01:00.743Z,12.10
2018-09-15T04:03:29.179Z,12.10
2018-09-15T04:05:57.712Z,12.10
2018-09-15T04:08:26.142Z,12.10
2018-09-15T04:10:54.599Z,12.10
2018-09-15T04:13:23.136Z,12.10
2018-09-15T04:15:51.723Z,12.10
2018-09-15T04:18:20.142Z,12.10
2018-09-15T04:20:48.964Z,12.10
2018-09-15T04:23:17.488Z,12.00
2018-09-15T04:25:46.411Z,12.00
2018-09-15T04:28:14.886Z,12.00
2018-09-15T04:30:43.564Z,12.00
2018-09-15T04:33:12.025Z,12.00
2018-09-15T04:35:41.016Z,12.00
2018-09-15T04:38:09.509Z,12.00
2018-09-15T04:40:38.000Z,12.00
2018-09-15T04:43:06.541Z,12.00
2018-09-15T04:45:35.003Z,12.00
2018-09-15T04:48:03.507Z,12.00
2018-09-15T04:50:31.949Z,12.00
2018-09-15T04:53:00.420Z,12.00
2018-09-15T04:55:28.869Z,12.00
2018-09-15T04:57:57.347Z,12.00
2018-09-15T05:00:25.855Z,11.90
2018-09-15T05:02:54.306Z,11.90
2018-09-15T05:05:22.936Z,11.90
2018-09-15T05:07:51.401Z,11.90
2018-09-15T05:10:19.831Z,11.80
2018-09-15T05:12:48.292Z,11.90
2018-09-15T05:15:16.722Z,11.80
2018-09-15T05:17:45.282Z,11.90
2018-09-15T05:20:13.879Z,11.90
2018-09-15T05:22:42.473Z,11.90
2018-09-15T05:25:10.937Z,11.90
2018-09-15T05:27:39.375Z,11.80
2018-09-15T05:30:08.098Z,11.90
2018-09-15T05:32:36.563Z,11.80
2018-09-15T05:35:05.244Z,11.80
2018-09-15T05:37:33.806Z,11.80
2018-09-15T05:40:02.460Z,11.80
2018-09-15T05:42:30.962Z,11.80
2018-09-15T05:44:59.515Z,11.80
2018-09-15T05:47:27.969Z,11.90
2018-09-15T05:49:56.416Z,11.90
2018-09-15T05:52:24.987Z,11.90
2018-09-15T05:54:53.894Z,11.90
2018-09-15T05:57:22.683Z,11.90
2018-09-15T05:59:51.137Z,12.00
2018-09-15T06:02:19.595Z,12.00
2018-09-15T06:04:48.085Z,12.00
2018-09-15T06:07:16.585Z,12.00
2018-09-15T06:09:45.044Z,12.00
2018-09-15T06:12:13.524Z,12.00
2018-09-15T06:14:42.479Z,12.10
2018-09-15T06:17:10.949Z,12.10
2018-09-15T06:19:39.649Z,12.10
2018-09-15T06:22:08.142Z,12.20
2018-09-15T06:24:36.591Z,12.20
2018-09-15T06:27:05.197Z,12.30
2018-09-15T06:29:33.633Z,12.30
2018-09-15T06:32:02.181Z,12.40
2018-09-15T06:34:30.625Z,12.40
2018-09-15T06:36:59.077Z,12.40
2018-09-15T06:39:27.608Z,12.50
2018-09-15T06:41:56.297Z,12.50
2018-09-15T06:44:24.885Z,12.50
2018-09-15T06:46:54.389Z,12.60
2018-09-15T06:49:23.099Z,12.70
2018-09-15T06:51:54.074Z,12.70
2018-09-15T06:54:22.669Z,12.80
2018-09-15T06:56:51.138Z,12.80
2018-09-15T06:59:19.590Z,12.90
2018-09-15T07:01:48.016Z,13.00
2018-09-15T07:04:17.320Z,13.10
2018-09-15T07:06:45.922Z,13.10
2018-09-15T07:09:15.032Z,13.20
2018-09-15T07:11:43.497Z,13.20
2018-09-15T07:14:12.112Z,13.30
2018-09-15T07:16:40.762Z,13.40
2018-09-15T07:19:09.326Z,13.50
2018-09-15T07:21:37.860Z,13.50
2018-09-15T07:24:06.440Z,13.60
2018-09-15T07:26:34.896Z,13.60
2018-09-15T07:29:03.404Z,13.70
2018-09-15T07:31:31.971Z,13.70
2018-09-15T07:34:00.467Z,13.80
2018-09-15T07:36:28.920Z,13.90
2018-09-15T07:38:57.370Z,13.90
2018-09-15T07:41:25.872Z,14.00
2018-09-15T07:43:54.449Z,14.10
2018-09-15T07:46:22.897Z,14.20
2018-09-15T07:48:51.372Z,14.30
2018-09-15T07:51:19.830Z,14.40
2018-09-15T07:53:48.449Z,14.40
2018-09-15T07:56:16.960Z,14.50
2018-09-15T07:58:45.522Z,14.60
2018-09-15T08:01:14.310Z,14.60
2018-09-15T08:03:42.778Z,14.70
2018-09-15T08:06:11.353Z,14.80
2018-09-15T08:08:39.920Z,14.90
2018-09-15T08:11:08.471Z,15.00
2018-09-15T08:13:37.036Z,15.00
2018-09-15T08:16:05.776Z,15.10
2018-09-15T08:18:34.555Z,15.20
2018-09-15T08:21:03.362Z,15.20
2018-09-15T08:23:31.920Z,15.30
2018-09-15T08:26:00.819Z,15.40
2018-09-15T08:28:29.325Z,15.40
2018-09-15T08:30:57.991Z,15.60
2018-09-15T08:33:26.569Z,15.60
2018-09-15T08:35:55.387Z,15.70
2018-09-15T08:38:23.973Z,15.80
2018-09-15T08:40:52.519Z,15.90
2018-09-15T08:43:20.974Z,16.00
2018-09-15T08:45:50.973Z,16.10
2018-09-15T08:48:19.493Z,16.20
2018-09-15T08:50:47.963Z,16.30
2018-09-15T08:53:16.804Z,16.30
2018-09-15T08:55:45.408Z,16.40
2018-09-15T08:58:14.155Z,16.60
2018-09-15T09:00:42.620Z,16.80
2018-09-15T09:03:11.070Z,16.80
2018-09-15T09:05:39.552Z,16.90
2018-09-15T09:08:08.007Z,17.00
2018-09-15T09:10:36.558Z,17.10
2018-09-15T09:13:05.077Z,17.10
2018-09-15T09:15:33.510Z,17.00
2018-09-15T09:18:02.076Z,17.10
2018-09-15T09:20:30.551Z,17.10
2018-09-15T09:22:59.009Z,17.00
2018-09-15T09:25:27.558Z,17.00
2018-09-15T09:27:56.152Z,17.00
2018-09-15T09:30:24.627Z,17.00
2018-09-15T09:32:53.088Z,17.10
2018-09-15T09:35:21.691Z,17.20
2018-09-15T09:37:50.168Z,17.40
2018-09-15T09:40:18.633Z,17.50
2018-09-15T09:42:47.209Z,17.60
2018-09-15T09:45:15.658Z,17.80
2018-09-15T09:47:44.237Z,18.00
2018-09-15T09:50:12.811Z,18.20
2018-09-15T09:52:41.264Z,18.20
2018-09-15T09:55:09.827Z,18.40
2018-09-15T09:57:38.283Z,18.50
2018-09-15T10:00:07.120Z,18.80
2018-09-15T10:02:35.805Z,19.00
2018-09-15T10:05:04.301Z,19.10
2018-09-15T10:07:32.826Z,19.40
2018-09-15T10:10:01.282Z,19.40
2018-09-15T10:12:29.861Z,19.10
2018-09-15T10:14:58.326Z,19.10
2018-09-15T10:17:26.773Z,19.10
2018-09-15T10:19:55.289Z,19.10
2018-09-15T10:22:23.761Z,19.20
2018-09-15T10:24:52.186Z,19.20
2018-09-15T10:27:20.765Z,19.40
2018-09-15T10:29:49.297Z,19.60
2018-09-15T10:32:17.762Z,19.70
2018-09-15T10:34:46.327Z,19.70
2018-09-15T10:37:14.793Z,19.80
2018-09-15T10:39:43.255Z,20.10
2018-09-15T10:42:11.743Z,20.30
2018-09-15T10:44:40.247Z,20.50
2018-09-15T10:47:08.705Z,20.70
2018-09-15T10:49:37.246Z,20.50
2018-09-15T10:52:05.841Z,20.40
2018-09-15T10:54:34.539Z,20.20
2018-09-15T10:57:08.095Z,20.00
2018-09-15T10:59:36.569Z,20.00
2018-09-15T11:02:05.073Z,20.10
2018-09-15T11:04:33.524Z,20.20
2018-09-15T11:07:01.986Z,20.50
2018-09-15T11:09:30.482Z,20.90
2018-09-15T11:11:59.056Z,20.90
2018-09-15T11:14:27.486Z,20.90
2018-09-15T11:16:55.921Z,21.00
2018-09-15T11:19:24.477Z,20.90
2018-09-15T11:21:52.939Z,20.80
2018-09-15T11:24:21.388Z,20.70
2018-09-15T11:26:49.894Z,20.70
2018-09-15T11:29:18.489Z,20.40
2018-09-15T11:31:46.937Z,20.20
2018-09-15T11:34:15.455Z,20.30
2018-09-15T11:36:44.360Z,20.50
2018-09-15T11:39:13.466Z,20.60
2018-09-15T11:41:41.953Z,20.50
2018-09-15T11:44:10.528Z,20.50
2018-09-15T11:46:40.043Z,20.40
2018-09-15T11:49:08.582Z,20.50
2018-09-15T11:51:37.085Z,20.60
2018-09-15T11:54:05.588Z,20.70
2018-09-15T11:56:34.056Z,20.70
2018-09-15T11:59:02.555Z,20.70
2018-09-15T12:01:31.027Z,20.70
2018-09-15T12:03:59.500Z,20.80
2018-09-15T12:06:28.033Z,20.90
2018-09-15T12:08:56.708Z,21.00
2018-09-15T12:11:25.213Z,21.00
2018-09-15T12:13:53.713Z,21.00
2018-09-15T12:16:22.208Z,20.90
2018-09-15T12:18:50.837Z,21.00
2018-09-15T12:21:19.335Z,21.00
2018-09-15T12:23:47.762Z,21.00
2018-09-15T12:26:16.201Z,21.00
2018-09-15T12:28:45.220Z,20.90
2018-09-15T12:31:13.851Z,21.00
2018-09-15T12:33:42.526Z,21.00
2018-09-15T12:36:11.135Z,20.90
2018-09-15T12:38:39.751Z,20.90
2018-09-15T12:41:08.321Z,20.90
2018-09-15T12:43:37.006Z,20.80
2018-09-15T12:46:05.576Z,20.80
2018-09-15T12:48:34.066Z,20.90
2018-09-15T12:51:02.579Z,20.70
2018-09-15T12:53:31.440Z,20.70
2018-09-15T12:56:00.196Z,20.70
2018-09-15T12:58:28.683Z,20.70
2018-09-15T13:00:57.361Z,20.60
2018-09-15T13:03:25.983Z,20.60
2018-09-15T13:05:54.530Z,20.60
2018-09-15T13:08:23.120Z,20.50
2018-09-15T13:10:51.576Z,20.50
2018-09-15T13:13:20.136Z,20.60
2018-09-15T13:15:48.594Z,20.70
2018-09-15T13:18:17.187Z,20.90
2018-09-15T13:20:45.629Z,21.00
2018-09-15T13:23:14.213Z,20.90
2018-09-15T13:25:42.679Z,20.90
2018-09-15T13:28:11.137Z,20.80
2018-09-15T13:30:39.661Z,20.70
2018-09-15T13:33:08.145Z,20.40
2018-09-15T13:35:36.725Z,20.30
2018-09-15T13:38:05.402Z,20.30
2018-09-15T13:40:33.913Z,20.40
2018-09-15T13:43:02.371Z,20.40
2018-09-15T13:45:30.851Z,20.40
2018-09-15T13:47:59.317Z,20.40
2018-09-15T13:50:27.761Z,20.40
2018-09-15T13:52:56.205Z,20.50
2018-09-15T13:55:24.657Z,20.50
2018-09-15T13:57:53.193Z,20.40
2018-09-15T14:00:21.656Z,20.50
2018-09-15T14:02:50.101Z,20.50
2018-09-15T14:05:18.620Z,20.60
2018-09-15T14:08:07.282Z,20.70
2018-09-15T14:10:41.350Z,20.90
2018-09-15T14:13:10.022Z,21.00
2018-09-15T14:15:38.610Z,21.00
2018-09-15T14:18:07.077Z,20.90
2018-09-15T14:20:35.546Z,20.90
2018-09-15T14:23:04.105Z,20.70
2018-09-15T14:25:33.168Z,20.60
2018-09-15T14:28:01.708Z,20.70
2018-09-15T14:30:30.333Z,20.70
2018-09-15T14:32:58.976Z,20.70
2018-09-15T14:35:27.504Z,20.70
2018-09-15T14:37:56.106Z,20.70
2018-09-15T14:40:24.625Z,20.70
2018-09-15T14:42:53.188Z,20.70
2018-09-15T14:45:22.062Z,20.60
2018-09-15T14:47:50.566Z,20.50
2018-09-15T14:50:19.081Z,20.50
2018-09-15T14:52:47.640Z,20.50
2018-09-15T14:55:16.153Z,20.60
2018-09-15T14:57:44.708Z,20.60
2018-09-15T15:00:13.335Z,20.70
2018-09-15T15:02:41.885Z,20.80
2018-09-15T15:05:10.357Z,20.80
2018-09-15T15:07:39.027Z,20.90
2018-09-15T15:10:07.520Z,21.00
2018-09-15T15:15:57.643Z,21.10
2018-09-15T15:18:26.222Z,21.10
2018-09-15T15:20:54.920Z,21.00
2018-09-15T15:23:23.366Z,21.00
2018-09-15T15:25:51.828Z,21.10
2018-09-15T15:28:20.273Z,21.00
2018-09-15T15:30:48.804Z,20.90
2018-09-15T15:33:17.251Z,20.80
2018-09-15T15:35:45.736Z,20.60
2018-09-15T15:38:14.387Z,20.60
2018-09-15T15:40:42.899Z,20.50
2018-09-15T15:43:11.452Z,20.50
2018-09-15T15:45:40.005Z,20.50
2018-09-15T15:48:08.497Z,20.40
2018-09-15T15:50:37.216Z,20.50
2018-09-15T15:53:05.683Z,20.40
2018-09-15T15:55:34.223Z,20.30
2018-09-15T15:58:02.785Z,20.20
2018-09-15T16:00:31.282Z,20.20
2018-09-15T16:02:59.833Z,20.20
2018-09-15T16:05:28.313Z,20.10
2018-09-15T16:07:57.693Z,20.20
2018-09-15T16:10:26.179Z,20.20
2018-09-15T16:12:54.707Z,20.20
2018-09-15T16:15:23.205Z,20.20
2018-09-15T16:17:51.992Z,20.20
2018-09-15T16:20:21.369Z,20.10
2018-09-15T16:22:49.883Z,20.10
2018-09-15T16:25:18.424Z,20.10
2018-09-15T16:27:46.850Z,20.10
2018-09-15T16:30:15.363Z,20.00
2018-09-15T16:32:44.077Z,20.00
2018-09-15T16:35:12.674Z,19.90
2018-09-15T16:37:41.212Z,19.90
2018-09-15T16:40:09.704Z,19.90
2018-09-15T16:42:38.284Z,19.80
2018-09-15T16:45:06.872Z,19.80
2018-09-15T16:47:35.328Z,19.70
2018-09-15T16:50:03.960Z,19.70
2018-09-15T16:52:32.399Z,19.70
2018-09-15T16:55:00.845Z,19.60
2018-09-15T16:57:29.430Z,19.60
2018-09-15T16:59:57.986Z,19.60
2018-09-15T17:02:26.436Z,19.60
2018-09-15T17:04:55.222Z,19.50
2018-09-15T17:07:23.701Z,19.50
2018-09-15T17:09:52.277Z,19.40
2018-09-15T17:12:20.698Z,19.30
2018-09-15T17:14:49.250Z,19.30
2018-09-15T17:17:17.702Z,19.20
2018-09-15T17:19:46.177Z,19.20
2018-09-15T17:22:14.836Z,19.10
2018-09-15T17:24:43.333Z,19.10
2018-09-15T17:27:11.913Z,19.00
2018-09-15T17:29:40.405Z,19.00
2018-09-15T17:32:08.859Z,18.90
2018-09-15T17:34:37.436Z,18.80
2018-09-15T17:37:05.973Z,18.80
2018-09-15T17:39:34.379Z,18.80
2018-09-15T17:42:02.857Z,18.70
2018-09-15T17:44:31.369Z,18.70
2018-09-15T17:46:59.876Z,18.60
2018-09-15T17:49:28.418Z,18.50
2018-09-15T17:51:56.868Z,18.40
2018-09-15T17:54:25.387Z,18.40
2018-09-15T17:56:53.960Z,18.30
2018-09-15T17:59:22.410Z,18.20
2018-09-15T18:01:50.865Z,18.20
2018-09-15T18:04:19.310Z,18.20
2018-09-15T18:06:47.777Z,18.10
2018-09-15T18:09:16.351Z,18.00
2018-09-15T18:11:44.890Z,18.00
2018-09-15T18:14:13.477Z,17.90
2018-09-15T18:16:41.938Z,17.90
2018-09-15T18:19:17.086Z,17.80
2018-09-15T18:21:45.688Z,17.80
2018-09-15T18:24:14.220Z,17.70
2018-09-15T18:26:42.665Z,17.70
2018-09-15T18:29:11.154Z,17.60
2018-09-15T18:31:39.600Z,17.50
2018-09-15T18:34:08.156Z,17.50
2018-09-15T18:36:36.702Z,17.40
2018-09-15T18:39:08.036Z,17.40
2018-09-15T18:41:36.500Z,17.30
2018-09-15T18:44:04.946Z,17.30
2018-09-15T18:46:33.470Z,17.20
2018-09-15T18:49:02.050Z,17.10
2018-09-15T18:51:30.641Z,17.10
2018-09-15T18:53:59.179Z,17.00
2018-09-15T18:56:27.799Z,17.00
2018-09-15T18:58:56.322Z,17.00
2018-09-15T19:01:24.865Z,16.90
2018-09-15T19:03:53.331Z,16.90
2018-09-15T19:06:21.801Z,16.90
2018-09-15T19:08:50.246Z,16.80
2018-09-15T19:11:18.827Z,16.80
2018-09-15T19:13:47.358Z,16.70
2018-09-15T19:16:15.794Z,16.70
2018-09-15T19:18:44.325Z,16.70
2018-09-15T19:21:12.935Z,16.70
2018-09-15T19:23:41.467Z,16.60
2018-09-15T19:26:09.939Z,16.60
2018-09-15T19:28:38.547Z,16.60
2018-09-15T19:31:13.581Z,16.50
2018-09-15T19:33:42.102Z,16.50
2018-09-15T19:36:10.538Z,16.40
2018-09-15T19:38:38.979Z,16.40
2018-09-15T19:41:07.446Z,16.30
2018-09-15T19:43:36.009Z,16.30
2018-09-15T19:46:04.597Z,16.30
2018-09-15T19:48:33.099Z,16.20
2018-09-15T19:51:01.551Z,16.20
2018-09-15T19:53:30.268Z,16.10
2018-09-15T19:55:58.793Z,16.10
2018-09-15T19:58:27.273Z,16.10
2018-09-15T20:00:55.879Z,16.10
2018-09-15T20:03:24.375Z,16.00
2018-09-15T20:05:53.116Z,15.90
2018-09-15T20:08:21.671Z,15.80
2018-09-15T20:10:50.365Z,15.80
2018-09-15T20:13:18.871Z,15.70
2018-09-15T20:15:46.235Z,15.70
2018-09-15T20:18:13.602Z,15.60
2018-09-15T20:20:40.972Z,15.50
2018-09-15T20:23:09.447Z,15.50
2018-09-15T20:25:37.999Z,15.50
2018-09-15T20:28:06.509Z,15.50
2018-09-15T20:30:34.961Z,15.60
2018-09-15T20:33:03.605Z,15.60
2018-09-15T20:35:32.034Z,15.60
2018-09-15T20:38:00.536Z,15.60
2018-09-15T20:40:29.113Z,15.60
2018-09-15T20:42:57.616Z,15.60
2018-09-15T20:45:26.098Z,15.70
2018-09-15T20:47:54.680Z,15.60
2018-09-15T20:50:23.155Z,15.60
2018-09-15T20:52:51.606Z,15.60
2018-09-15T20:55:20.040Z,15.50
2018-09-15T20:57:48.486Z,15.50
2018-09-15T21:00:16.953Z,15.40
2018-09-15T21:02:45.409Z,15.30
2018-09-15T21:05:13.945Z,15.20
2018-09-15T21:07:42.402Z,15.20
2018-09-15T21:10:10.851Z,15.10
2018-09-15T21:12:39.310Z,15.00
2018-09-15T21:15:07.888Z,14.90
2018-09-15T21:17:36.314Z,14.90
2018-09-15T21:20:04.893Z,14.80
2018-09-15T21:22:33.458Z,14.70
2018-09-15T21:25:01.914Z,14.70
2018-09-15T21:27:30.379Z,14.60
2018-09-15T21:29:58.844Z,14.60
2018-09-15T21:32:27.431Z,14.60
2018-09-15T21:34:58.933Z,14.60
2018-09-15T21:37:27.477Z,14.60
2018-09-15T21:39:56.216Z,14.60
2018-09-15T21:42:24.718Z,14.60
2018-09-15T21:44:53.294Z,14.70
2018-09-15T21:47:21.732Z,14.70
2018-09-15T21:49:50.192Z,14.70
2018-09-15T21:52:18.647Z,14.70
2018-09-15T21:54:47.142Z,14.70
2018-09-15T21:57:15.585Z,14.60
2018-09-15T21:59:44.139Z,14.70
2018-09-15T22:02:12.568Z,14.70
2018-09-15T22:04:41.003Z,14.60
2018-09-15T22:07:09.581Z,14.60
2018-09-15T22:09:38.296Z,14.60
2018-09-15T22:12:06.897Z,14.60
2018-09-15T22:14:35.339Z,14.60
2018-09-15T22:17:03.811Z,14.60
2018-09-15T22:19:32.273Z,14.60
2018-09-15T22:22:00.809Z,14.60
2018-09-15T22:24:29.255Z,14.60
2018-09-15T22:26:57.711Z,14.60
2018-09-15T22:29:26.167Z,14.60
2018-09-15T22:31:54.652Z,14.50
2018-09-15T22:34:23.195Z,14.50
2018-09-15T22:36:51.665Z,14.40
2018-09-15T22:39:20.160Z,14.40
2018-09-15T22:41:48.585Z,14.30
2018-09-15T22:44:17.025Z,14.30
2018-09-15T22:46:45.449Z,14.30
2018-09-15T22:49:13.923Z,14.30
2018-09-15T22:51:42.515Z,14.30
2018-09-15T22:54:10.960Z,14.30
2018-09-15T22:56:39.396Z,14.30
2018-09-15T22:59:07.933Z,14.30
2018-09-15T23:01:36.432Z,14.30
2018-09-15T23:04:07.048Z,14.30
2018-09-15T23:06:35.485Z,14.30
2018-09-15T23:09:05.233Z,14.30
2018-09-15T23:11:33.674Z,14.30
2018-09-15T23:14:02.116Z,14.30
2018-09-15T23:16:30.621Z,14.30
2018-09-15T23:18:59.113Z,14.30
2018-09-15T23:21:27.569Z,14.30
2018-09-15T23:23:56.101Z,14.20
2018-09-15T23:26:24.533Z,14.20
2018-09-15T23:28:52.958Z,14.20
2018-09-15T23:31:21.602Z,14.10
2018-09-15T23:33:50.044Z,14.10
2018-09-15T23:36:18.516Z,14.00
2018-09-15T23:38:46.997Z,14.00
2018-09-15T23:41:15.519Z,14.00
2018-09-15T23:43:44.097Z,14.00
2018-09-15T23:46:12.651Z,13.90
2018-09-15T23:48:41.273Z,13.80
2018-09-15T23:51:09.759Z,13.80
2018-09-15T23:53:38.212Z,13.80
2018-09-15T23:56:06.825Z,13.80
2018-09-15T23:58:35.369Z,13.70
